Time;durP1;ratioP1;P1;durP2;ratioP2;P2;SDS_P1;SDS_P2;PMS_P1;PMS_P2;Temp;Humidity;BMP_temperature;BMP_pressure;BME280_temperature;BME280_humidity;BME280_pressure;Samples;Min_cycle;Max_cycle;Signal;HPM_P1;HPM_P2
2022/08/26 00:00:39;;;;;;;16.45;11.77;;;17.40;99.90;;;;;;5065435;28;20497;-75
2022/08/26 00:03:05;;;;;;;19.48;11.82;;;17.40;99.90;;;;;;5065168;28;20056;-75
2022/08/26 00:05:31;;;;;;;15.90;11.23;;;17.40;99.90;;;;;;5066053;28;20037;-75
2022/08/26 00:07:56;;;;;;;17.83;11.70;;;17.30;99.90;;;;;;5033849;28;20032;-75
2022/08/26 00:10:22;;;;;;;19.67;11.07;;;17.30;99.90;;;;;;5035316;28;20469;-76
2022/08/26 00:12:48;;;;;;;16.15;11.63;;;17.30;99.90;;;;;;5034933;28;20060;-76
2022/08/26 00:15:17;;;;;;;15.73;11.05;;;17.30;99.90;;;;;;5066339;28;20021;-75
2022/08/26 00:17:43;;;;;;;20.48;12.10;;;17.30;99.90;;;;;;5066275;28;20355;-75
2022/08/26 00:20:12;;;;;;;16.60;11.20;;;17.30;99.90;;;;;;5033512;28;20040;-76
2022/08/26 00:22:38;;;;;;;;;;;17.30;99.90;;;;;;5065600;28;20032;-75
2022/08/26 00:25:06;;;;;;;15.25;10.85;;;17.20;99.90;;;;;;5031966;28;19905;-75
2022/08/26 00:27:32;;;;;;;18.67;11.73;;;17.20;99.90;;;;;;5068271;28;20021;-75
2022/08/26 00:29:59;;;;;;;16.55;11.50;;;17.20;99.90;;;;;;5035379;28;20026;-75
2022/08/26 00:32:25;;;;;;;13.77;10.88;;;17.10;99.90;;;;;;5036269;28;20060;-74
2022/08/26 00:34:51;;;;;;;15.25;10.30;;;17.10;99.90;;;;;;5036500;28;20074;-75
2022/08/26 00:37:17;;;;;;;14.52;10.60;;;17.10;99.90;;;;;;5068864;28;20455;-74
2022/08/26 00:39:43;;;;;;;19.05;11.50;;;17.00;99.90;;;;;;5036667;28;20029;-75
2022/08/26 00:42:09;;;;;;;14.00;10.75;;;17.00;99.90;;;;;;5036544;28;20029;-75
2022/08/26 00:44:35;;;;;;;15.75;10.93;;;17.00;99.90;;;;;;5036092;28;20025;-75
2022/08/26 00:47:06;;;;;;;16.13;11.35;;;17.00;99.90;;;;;;5036533;28;20049;-75
2022/08/26 00:49:38;;;;;;;15.75;11.70;;;17.00;99.90;;;;;;5068356;28;20057;-75
2022/08/26 00:52:08;;;;;;;16.77;10.38;;;16.90;99.90;;;;;;5036480;28;20072;-75
2022/08/26 00:54:35;;;;;;;;;;;16.90;99.90;;;;;;5068620;28;20025;-74
2022/08/26 00:57:07;;;;;;;16.05;10.68;;;16.90;99.90;;;;;;5034905;28;19956;-74
2022/08/26 00:59:33;;;;;;;21.27;11.18;;;16.90;99.90;;;;;;5068168;28;20033;-75
2022/08/26 01:02:00;;;;;;;17.88;11.63;;;16.90;99.90;;;;;;5067694;28;20046;-74
2022/08/26 01:04:27;;;;;;;19.23;11.88;;;16.90;99.90;;;;;;5035705;28;20096;-74
2022/08/26 01:06:53;;;;;;;15.90;11.32;;;16.80;99.90;;;;;;5068198;28;20496;-75
2022/08/26 01:09:21;;;;;;;15.30;10.90;;;16.90;99.90;;;;;;5036182;28;20030;-74
2022/08/26 01:11:49;;;;;;;16.58;11.73;;;16.90;99.90;;;;;;5067912;28;20092;-74
2022/08/26 01:14:18;;;;;;;18.70;12.10;;;16.90;99.90;;;;;;5068129;28;20380;-75
2022/08/26 01:16:44;;;;;;;14.88;11.27;;;16.90;99.90;;;;;;5035794;28;20021;-75
2022/08/26 01:19:44;;;;;;;15.77;11.50;;;16.90;99.90;;;;;;5067388;28;20489;-75
2022/08/26 01:22:18;;;;;;;20.17;11.70;;;16.80;99.90;;;;;;5035726;28;20102;-75
2022/08/26 01:24:44;;;;;;;17.23;11.07;;;16.80;99.90;;;;;;5035704;28;20029;-74
2022/08/26 01:27:14;;;;;;;14.45;10.50;;;16.90;99.90;;;;;;5035570;28;20025;-74
2022/08/26 01:29:41;;;;;;;17.45;10.75;;;16.80;99.90;;;;;;5035551;28;20026;-75
2022/08/26 01:32:10;;;;;;;12.52;10.63;;;16.80;99.90;;;;;;5067524;28;20025;-74
2022/08/26 01:34:38;;;;;;;16.23;12.55;;;16.80;99.90;;;;;;5067529;28;20029;-75
2022/08/26 01:37:14;;;;;;;11.73;10.30;;;16.80;99.90;;;;;;5035371;28;20029;-74
2022/08/26 01:39:40;;;;;;;24.20;10.82;;;16.80;99.90;;;;;;5035408;28;20032;-74
2022/08/26 01:42:10;;;;;;;12.85;10.50;;;16.70;99.90;;;;;;5067275;28;20477;-74
2022/08/26 01:44:43;;;;;;;13.65;11.18;;;16.70;99.90;;;;;;5035494;28;20110;-75
2022/08/26 01:47:12;;;;;;;16.08;10.32;;;16.70;99.90;;;;;;5067758;28;20462;-74
2022/08/26 01:49:40;;;;;;;18.20;10.90;;;16.70;99.90;;;;;;5035258;28;20032;-75
2022/08/26 01:52:08;;;;;;;17.52;10.70;;;16.60;99.90;;;;;;5067149;28;20426;-75
2022/08/26 01:54:35;;;;;;;18.67;10.18;;;16.60;99.90;;;;;;5035079;28;20080;-74
2022/08/26 01:57:01;;;;;;;16.13;10.55;;;16.60;99.90;;;;;;5035092;28;20029;-74
2022/08/26 01:59:29;;;;;;;14.52;10.63;;;16.60;99.90;;;;;;5066915;28;20032;-74
2022/08/26 02:01:55;;;;;;;20.58;10.85;;;16.60;99.90;;;;;;5034681;28;20469;-74
2022/08/26 02:04:23;;;;;;;15.07;10.02;;;16.60;99.90;;;;;;5034559;28;20037;-74
2022/08/26 02:06:50;;;;;;;16.87;10.10;;;16.60;99.90;;;;;;5066909;28;20428;-75
2022/08/26 02:09:17;;;;;;;13.95;10.82;;;16.60;99.90;;;;;;5034780;28;20376;-74
2022/08/26 02:11:43;;;;;;;13.50;10.38;;;16.60;99.90;;;;;;5034945;28;20037;-75
2022/08/26 02:14:23;;;;;;;21.05;10.68;;;16.50;99.90;;;;;;5066579;28;20029;-74
2022/08/26 02:16:51;;;;;;;15.98;10.60;;;16.50;99.90;;;;;;5066869;28;20491;-74
2022/08/26 02:19:22;;;;;;;17.50;10.00;;;16.50;99.90;;;;;;5034855;28;20048;-75
2022/08/26 02:21:50;;;;;;;13.65;10.48;;;16.50;99.90;;;;;;5034557;28;20052;-74
2022/08/26 02:24:23;;;;;;;13.90;10.20;;;16.50;99.90;;;;;;5034800;28;20064;-74
2022/08/26 02:26:49;;;;;;;14.10;10.13;;;16.50;99.90;;;;;;5066556;28;20030;-75
2022/08/26 02:29:22;;;;;;;18.45;10.85;;;16.50;99.90;;;;;;5066426;28;20064;-75
2022/08/26 02:31:49;;;;;;;14.55;10.57;;;16.50;99.90;;;;;;5034140;28;20025;-74
2022/08/26 02:34:19;;;;;;;16.25;10.05;;;15.90;99.90;;;;;;5034057;28;20489;-74
2022/08/26 02:36:45;;;;;;;15.23;10.20;;;16.50;99.90;;;;;;5034599;28;20095;-74
2022/08/26 02:39:11;;;;;;;12.75;10.18;;;16.50;99.90;;;;;;5066241;28;20033;-74
2022/08/26 02:41:37;;;;;;;16.98;10.50;;;16.50;99.90;;;;;;5034427;28;20109;-74
2022/08/26 02:44:05;;;;;;;13.35;9.80;;;16.50;99.90;;;;;;5034280;28;20030;-75
2022/08/26 02:46:31;;;;;;;14.50;10.23;;;16.40;99.90;;;;;;5032887;28;20029;-75
2022/08/26 02:48:58;;;;;;;11.80;9.52;;;16.40;99.90;;;;;;5033738;28;20351;-74
2022/08/26 02:51:24;;;;;;;14.38;9.68;;;16.40;99.90;;;;;;5032766;28;20025;-75
2022/08/26 02:53:49;;;;;;;12.82;10.13;;;16.40;99.90;;;;;;5032825;28;20444;-74
2022/08/26 02:56:15;;;;;;;14.18;10.18;;;16.30;99.90;;;;;;5033838;28;20064;-74
2022/08/26 02:58:41;;;;;;;12.68;9.85;;;16.30;99.90;;;;;;5033740;28;20061;-74
2022/08/26 03:01:06;;;;;;;17.63;10.07;;;16.30;99.90;;;;;;5032412;28;20483;-74
2022/08/26 03:03:32;;;;;;;16.83;10.00;;;16.30;99.90;;;;;;5033620;28;20496;-75
2022/08/26 03:05:58;;;;;;;12.10;9.60;;;16.30;99.90;;;;;;5066010;28;20462;-74
2022/08/26 03:08:24;;;;;;;16.60;11.35;;;16.30;99.90;;;;;;5032648;28;20068;-74
2022/08/26 03:10:49;;;;;;;17.25;10.35;;;16.30;99.90;;;;;;5033830;28;20060;-74
2022/08/26 03:13:15;;;;;;;16.92;10.55;;;16.20;99.90;;;;;;5033796;28;20511;-74
2022/08/26 03:15:41;;;;;;;17.35;10.48;;;16.20;99.90;;;;;;5066297;28;20025;-75
2022/08/26 03:18:06;;;;;;;21.38;10.23;;;16.20;99.90;;;;;;5033793;28;20026;-74
2022/08/26 03:20:32;;;;;;;15.95;9.77;;;16.20;99.90;;;;;;5033811;28;20358;-74
2022/08/26 03:22:58;;;;;;;16.55;9.57;;;16.20;99.90;;;;;;5033801;28;20030;-74
2022/08/26 03:25:25;;;;;;;15.77;10.52;;;16.20;99.90;;;;;;5032371;28;20037;-74
2022/08/26 03:27:51;;;;;;;14.18;10.05;;;16.20;99.90;;;;;;5033708;28;20079;-74
2022/08/26 03:33:02;;;;;;;14.35;9.32;;;16.20;99.90;;;;;;5033620;28;20389;-74
2022/08/26 03:35:29;;;;;;;13.15;9.77;;;16.20;99.90;;;;;;5033355;28;20167;-74
2022/08/26 03:37:54;;;;;;;21.25;9.85;;;16.20;99.90;;;;;;5033245;28;20026;-74
2022/08/26 03:40:21;;;;;;;15.15;10.25;;;16.20;99.90;;;;;;5034040;28;20029;-75
2022/08/26 03:42:47;;;;;;;11.10;9.90;;;16.20;99.90;;;;;;5066225;28;20040;-75
2022/08/26 03:45:14;;;;;;;12.68;9.85;;;16.10;99.90;;;;;;5033512;28;20029;-74
2022/08/26 03:47:40;;;;;;;15.68;9.27;;;16.10;99.90;;;;;;5032154;28;20029;-74
2022/08/26 03:50:10;;;;;;;13.40;9.60;;;16.10;99.90;;;;;;5033481;28;20021;-75
2022/08/26 03:52:36;;;;;;;19.25;9.75;;;16.10;99.90;;;;;;5032208;28;20516;-74
2022/08/26 03:55:03;;;;;;;17.00;9.90;;;16.00;99.90;;;;;;5033479;28;20071;-74
2022/08/26 03:57:30;;;;;;;15.43;9.63;;;16.00;99.90;;;;;;5032145;28;20449;-74
2022/08/26 03:59:55;;;;;;;17.35;10.40;;;16.00;99.90;;;;;;5033439;28;20060;-75
2022/08/26 04:02:21;;;;;;;16.15;9.25;;;16.00;99.90;;;;;;5067749;28;20077;-74
2022/08/26 04:04:46;;;;;;;14.38;9.88;;;15.90;99.90;;;;;;5036852;28;20104;-74
2022/08/26 04:07:12;;;;;;;12.95;10.02;;;16.00;99.90;;;;;;5036794;28;20432;-74
2022/08/26 04:09:38;;;;;;;14.65;9.48;;;15.90;99.90;;;;;;5068986;28;20032;-74
2022/08/26 04:12:04;;;;;;;15.70;9.50;;;15.90;99.90;;;;;;5036895;28;20033;-74
2022/08/26 04:14:31;;;;;;;12.75;9.65;;;15.90;99.90;;;;;;5036614;28;20397;-74
2022/08/26 04:16:56;;;;;;;15.82;10.32;;;15.90;99.90;;;;;;5035535;28;20032;-75
2022/08/26 04:19:23;;;;;;;10.63;9.50;;;15.90;99.90;;;;;;5036816;28;20021;-74
2022/08/26 04:21:51;;;;;;;15.90;10.55;;;15.90;99.90;;;;;;5035467;28;20033;-74
2022/08/26 04:24:19;;;;;;;11.23;8.95;;;15.90;99.90;;;;;;5068687;28;20037;-61
2022/08/26 04:26:45;;;;;;;14.30;9.68;;;15.90;99.90;;;;;;5035442;28;20474;-60
2022/08/26 04:29:17;;;;;;;17.38;10.15;;;15.90;99.90;;;;;;5036341;28;20447;-60
2022/08/26 04:31:43;;;;;;;14.85;11.07;;;16.00;99.90;;;;;;5036552;28;20036;-61
2022/08/26 04:34:09;;;;;;;12.48;8.50;;;16.00;99.90;;;;;;5036577;28;20029;-60
2022/08/26 04:36:35;;;;;;;13.80;9.48;;;16.10;99.90;;;;;;5036423;28;20432;-60
2022/08/26 04:39:02;;;;;;;12.07;8.43;;;16.10;99.90;;;;;;5036406;28;20018;-60
2022/08/26 04:41:30;;;;;;;11.82;8.55;;;16.10;99.90;;;;;;5036429;28;20037;-60
2022/08/26 04:43:56;;;;;;;9.93;7.83;;;16.20;99.90;;;;;;5036390;28;20029;-60
2022/08/26 04:46:24;;;;;;;10.27;8.35;;;16.20;99.90;;;;;;5036292;28;20083;-61
2022/08/26 04:48:51;;;;;;;14.20;8.88;;;16.30;99.90;;;;;;5035090;28;20437;-61
2022/08/26 04:51:18;;;;;;;12.23;9.32;;;16.30;99.90;;;;;;5036401;28;20112;-61
2022/08/26 04:53:45;;;;;;;9.82;7.72;;;16.40;99.90;;;;;;5036156;28;20507;-60
2022/08/26 04:56:11;;;;;;;14.90;8.10;;;16.40;99.90;;;;;;5035777;28;20064;-62
2022/08/26 04:58:37;;;;;;;11.02;7.55;;;16.50;99.90;;;;;;5036404;28;20026;-60
2022/08/26 05:01:03;;;;;;;19.75;8.25;;;16.50;99.90;;;;;;5035504;28;20032;-60
2022/08/26 05:03:30;;;;;;;12.05;7.97;;;16.60;99.90;;;;;;5036050;28;20060;-60
2022/08/26 05:05:57;;;;;;;11.63;7.72;;;16.70;99.90;;;;;;5036123;28;20053;-60
2022/08/26 05:08:23;;;;;;;8.80;7.22;;;16.80;99.90;;;;;;5036345;28;20029;-60
2022/08/26 05:10:55;;;;;;;13.90;7.50;;;16.90;99.90;;;;;;5036095;28;20031;-61
2022/08/26 05:13:23;;;;;;;8.35;7.18;;;17.00;99.90;;;;;;5036105;28;20385;-60
2022/08/26 05:15:49;;;;;;;8.18;7.20;;;17.10;99.90;;;;;;5035858;28;20040;-60
2022/08/26 05:18:20;;;;;;;17.05;8.98;;;17.20;99.90;;;;;;5035363;28;20026;-60
2022/08/26 05:20:49;;;;;;;12.48;7.30;;;17.30;99.90;;;;;;5035765;28;20025;-60
2022/08/26 05:23:15;;;;;;;;;;;17.40;99.90;;;;;;5036104;28;20435;-60
2022/08/26 05:25:47;;;;;;;10.57;6.63;;;17.50;99.90;;;;;;5035490;28;20012;-60
2022/08/26 05:28:15;;;;;;;9.95;6.97;;;17.60;99.90;;;;;;5035644;28;20124;-60
2022/08/26 05:30:41;;;;;;;11.13;6.45;;;17.80;99.90;;;;;;5035661;28;20056;-61
2022/08/26 05:33:08;;;;;;;8.25;6.75;;;17.90;99.90;;;;;;5035391;28;20462;-61
2022/08/26 05:35:36;;;;;;;8.05;6.25;;;18.00;99.90;;;;;;5035475;28;20022;-62
2022/08/26 05:38:06;;;;;;;10.32;6.47;;;18.20;99.90;;;;;;5035244;28;20026;-61
2022/08/26 05:40:37;;;;;;;11.20;6.68;;;18.30;99.90;;;;;;5035581;28;20033;-61
2022/08/26 05:43:09;;;;;;;11.98;7.28;;;18.40;99.90;;;;;;5035321;28;20033;-60
2022/08/26 05:45:42;;;;;;;12.30;6.95;;;18.60;99.90;;;;;;5035514;28;20036;-60
2022/08/26 05:48:08;;;;;;;11.75;7.32;;;18.70;99.90;;;;;;5034911;28;20036;-61
2022/08/26 05:50:44;;;;;;;8.25;5.97;;;18.90;99.90;;;;;;5035362;28;20132;-62
2022/08/26 05:53:12;;;;;;;13.70;6.43;;;19.10;99.90;;;;;;5034705;28;20452;-61
2022/08/26 05:55:49;;;;;;;11.75;6.07;;;19.30;99.90;;;;;;5034958;28;20120;-61
2022/08/26 05:58:15;;;;;;;8.20;6.38;;;19.60;99.90;;;;;;5033788;28;20104;-62
2022/08/26 06:00:41;;;;;;;11.23;6.38;;;20.00;99.90;;;;;;5034547;28;20045;-60
2022/08/26 06:03:07;;;;;;;9.07;5.82;;;20.50;99.90;;;;;;5033513;28;20505;-66
2022/08/26 06:05:40;;;;;;;10.18;5.05;;;21.00;99.90;;;;;;5034743;28;20034;-61
2022/08/26 06:08:13;;;;;;;6.63;5.50;;;21.60;99.90;;;;;;5034727;28;20030;-61
2022/08/26 06:10:53;;;;;;;6.90;5.18;;;22.00;99.90;;;;;;5034765;28;20044;-59
2022/08/26 06:13:22;;;;;;;8.38;4.78;;;22.50;99.90;;;;;;5034654;28;20052;-59
2022/08/26 06:15:50;;;;;;;9.43;5.40;;;22.80;99.90;;;;;;5034598;28;20026;-59
2022/08/26 06:18:19;;;;;;;8.30;5.43;;;23.00;99.90;;;;;;5034526;28;20061;-60
2022/08/26 06:20:46;;;;;;;11.45;5.28;;;23.40;99.90;;;;;;5034480;28;20028;-58
2022/08/26 06:25:59;;;;;;;7.05;4.38;;;24.20;99.90;;;;;;5034528;28;20115;-59
2022/08/26 06:28:25;;;;;;;8.25;4.63;;;24.50;99.90;;;;;;5034443;28;20029;-59
2022/08/26 06:30:52;;;;;;;10.02;5.15;;;24.90;99.90;;;;;;5033065;28;20030;-58
2022/08/26 06:33:18;;;;;;;8.15;5.25;;;25.00;99.90;;;;;;5034278;28;20029;-59
2022/08/26 06:35:45;;;;;;;8.25;4.63;;;25.10;99.90;;;;;;5033366;28;20037;-59
2022/08/26 06:38:12;;;;;;;7.60;4.93;;;25.40;99.90;;;;;;5033927;28;20041;-62
2022/08/26 06:40:44;;;;;;;9.93;4.70;;;25.70;99.90;;;;;;5032967;28;20033;-62
2022/08/26 06:43:10;;;;;;;10.15;5.38;;;26.00;99.90;;;;;;5034299;28;20120;-60
2022/08/26 06:45:37;;;;;;;8.32;5.30;;;26.30;99.90;;;;;;5034081;28;20033;-61
2022/08/26 06:48:06;;;;;;;10.20;6.07;;;26.40;99.90;;;;;;5032942;28;20032;-60
2022/08/26 06:50:33;;;;;;;6.88;5.32;;;26.70;99.90;;;;;;5034237;28;20017;-60
2022/08/26 06:52:59;;;;;;;9.45;4.68;;;26.90;99.90;;;;;;5034017;28;20029;-60
2022/08/26 06:55:25;;;;;;;13.73;6.65;;;27.30;99.90;;;;;;5034125;28;20032;-61
2022/08/26 06:57:50;;;;;;;11.50;5.97;;;27.50;99.90;;;;;;5034153;28;20039;-60
2022/08/26 07:00:17;;;;;;;10.75;6.72;;;27.70;99.90;;;;;;5033634;28;20106;-62
2022/08/26 07:02:42;;;;;;;16.05;7.20;;;27.90;99.90;;;;;;5032205;28;20052;-60
2022/08/26 07:05:09;;;;;;;16.05;7.97;;;28.00;99.90;;;;;;5033600;28;20025;-62
2022/08/26 07:07:34;;;;;;;19.48;8.18;;;28.10;99.90;;;;;;5033581;28;20053;-62
2022/08/26 07:10:00;;;;;;;13.02;7.57;;;28.30;99.90;;;;;;5033708;28;20061;-60
2022/08/26 07:12:26;;;;;;;15.23;6.88;;;28.50;99.90;;;;;;5033882;28;20087;-62
2022/08/26 07:14:52;;;;;;;21.05;7.57;;;28.40;99.90;;;;;;5033860;28;20463;-62
2022/08/26 07:17:18;;;;;;;20.17;8.30;;;28.30;99.90;;;;;;5033800;28;20105;-62
2022/08/26 07:19:44;;;;;;;17.77;8.15;;;28.20;99.90;;;;;;5033693;28;20087;-62
2022/08/26 07:22:11;;;;;;;15.60;9.23;;;28.10;99.90;;;;;;5032306;28;20489;-62
2022/08/26 07:24:40;;;;;;;14.25;7.60;;;28.50;99.90;;;;;;5033329;28;20021;-62
2022/08/26 07:27:10;;;;;;;16.13;7.40;;;28.60;99.90;;;;;;5033511;28;20033;-63
2022/08/26 07:29:38;;;;;;;19.70;8.00;;;28.90;99.90;;;;;;5033468;28;20033;-75
2022/08/26 07:32:05;;;;;;;18.02;8.43;;;29.30;99.90;;;;;;5032194;28;20057;-75
2022/08/26 07:34:31;;;;;;;17.38;8.98;;;29.60;99.20;;;;;;5033623;28;20037;-75
2022/08/26 07:36:57;;;;;;;18.42;7.47;;;29.70;99.30;;;;;;5037623;28;20025;-76
2022/08/26 07:39:24;;;;;;;14.93;7.55;;;29.70;98.80;;;;;;5037885;28;20053;-76
2022/08/26 07:41:50;;;;;;;20.08;6.93;;;29.80;98.40;;;;;;5036333;28;20030;-76
2022/08/26 07:44:16;;;;;;;9.05;5.75;;;30.10;97.00;;;;;;5036129;28;20044;-76
2022/08/26 07:46:42;;;;;;;10.48;5.30;;;30.20;95.60;;;;;;5037535;28;20026;-77
2022/08/26 07:49:07;;;;;;;7.40;5.15;;;30.50;93.60;;;;;;5036463;28;20385;-76
2022/08/26 07:51:34;;;;;;;9.57;5.15;;;30.70;92.40;;;;;;5037328;28;20091;-77
2022/08/26 07:53:59;;;;;;;12.30;5.35;;;30.60;91.60;;;;;;5037268;28;20120;-74
2022/08/26 07:56:25;;;;;;;8.55;6.40;;;30.50;91.90;;;;;;5035992;28;20053;-74
2022/08/26 07:58:52;;;;;;;9.77;5.57;;;30.70;91.90;;;;;;5036016;28;20032;-74
2022/08/26 08:01:23;;;;;;;10.77;5.10;;;31.00;91.10;;;;;;5036905;28;20049;-75
2022/08/26 08:03:50;;;;;;;12.73;5.22;;;31.20;90.80;;;;;;5037071;28;20465;-77
2022/08/26 08:06:17;;;;;;;10.15;6.53;;;31.60;90.40;;;;;;5037057;28;20026;-75
2022/08/26 08:08:43;;;;;;;10.68;5.07;;;32.10;86.50;;;;;;5036946;28;20113;-76
2022/08/26 08:11:10;;;;;;;10.65;5.47;;;32.40;86.30;;;;;;5037087;28;20029;-75
2022/08/26 08:13:37;;;;;;;8.05;5.05;;;32.70;84.90;;;;;;5036998;28;20041;-75
2022/08/26 08:16:03;;;;;;;8.73;5.63;;;32.60;84.60;;;;;;5036900;28;20449;-77
2022/08/26 08:18:29;;;;;;;11.27;5.85;;;32.60;83.80;;;;;;5037056;28;20022;-75
2022/08/26 08:20:55;;;;;;;13.00;5.53;;;32.50;84.00;;;;;;5035483;28;20388;-75
2022/08/26 08:23:21;;;;;;;11.98;5.13;;;32.60;81.80;;;;;;5036721;28;20038;-75
2022/08/26 08:25:47;;;;;;;10.48;5.18;;;32.50;80.30;;;;;;5035401;28;20030;-75
2022/08/26 08:28:14;;;;;;;14.38;5.55;;;32.80;80.50;;;;;;5035358;28;20491;-75
2022/08/26 08:30:40;;;;;;;12.48;6.10;;;33.40;77.40;;;;;;5035800;28;20037;-77
2022/08/26 08:33:06;;;;;;;12.45;6.22;;;33.60;76.50;;;;;;5036307;28;20461;-75
2022/08/26 08:35:33;;;;;;;7.10;4.95;;;34.10;75.30;;;;;;5035226;28;20033;-75
2022/08/26 08:37:59;;;;;;;13.43;6.03;;;34.10;72.30;;;;;;5036535;28;20026;-75
2022/08/26 08:40:26;;;;;;;14.48;5.55;;;34.00;72.60;;;;;;5035170;28;20030;-75
2022/08/26 08:43:04;;;;;;;10.85;4.70;;;34.20;70.80;;;;;;5036288;28;20029;-75
2022/08/26 08:45:38;;;;;;;11.43;5.03;;;34.90;69.10;;;;;;5035504;28;20105;-75
2022/08/26 08:48:45;;;;;;;20.60;5.35;;;34.60;67.90;;;;;;5035527;28;20484;-75
2022/08/26 08:51:28;;;;;;;13.57;5.60;;;35.00;67.20;;;;;;5014245;28;20532;-74
2022/08/26 08:53:55;;;;;;;12.38;4.85;;;35.60;64.40;;;;;;5014268;28;20033;-74
2022/08/26 08:56:38;;;;;;;13.40;4.63;;;36.00;63.60;;;;;;4997582;28;20081;-77
2022/08/26 08:59:26;;;;;;;9.32;4.40;;;36.20;61.80;;;;;;4997977;28;20113;-75
2022/08/26 09:02:02;;;;;;;11.32;5.13;;;36.50;60.20;;;;;;5013836;28;20046;-74
2022/08/26 09:04:51;;;;;;;14.95;5.30;;;36.10;58.70;;;;;;5013723;28;20100;-74
2022/08/26 09:07:47;;;;;;;14.18;5.03;;;35.90;59.60;;;;;;5030392;28;20022;-74
2022/08/26 09:10:31;;;;;;;9.73;5.00;;;35.90;59.70;;;;;;5013287;28;20517;-76
2022/08/26 09:12:57;;;;;;;10.07;4.82;;;36.40;57.70;;;;;;5014031;28;20044;-74
2022/08/26 09:15:47;;;;;;;11.48;4.75;;;36.70;57.50;;;;;;5030133;28;20038;-74
2022/08/26 09:18:43;;;;;;;10.20;4.70;;;36.10;56.60;;;;;;5013651;28;20532;-74
2022/08/26 09:21:15;;;;;;;11.73;4.95;;;35.00;58.30;;;;;;5017831;28;20041;-74
2022/08/26 09:23:42;;;;;;;8.70;4.68;;;35.00;58.50;;;;;;5035789;28;20034;-74
2022/08/26 09:26:20;;;;;;;12.85;4.32;;;35.10;58.60;;;;;;5035393;28;20071;-74
2022/08/26 09:28:53;;;;;;;10.50;4.90;;;35.30;58.10;;;;;;5035889;28;20068;-74
2022/08/26 09:31:34;;;;;;;10.43;5.03;;;35.80;57.60;;;;;;5035583;28;20036;-75
2022/08/26 09:34:05;;;;;;;11.10;4.75;;;35.80;56.30;;;;;;5034838;28;20041;-76
2022/08/26 09:36:39;;;;;;;14.30;5.03;;;35.80;57.60;;;;;;5035335;28;20465;-74
2022/08/26 09:39:24;;;;;;;10.75;4.85;;;35.90;55.90;;;;;;5034603;28;20071;-74
2022/08/26 09:42:05;;;;;;;11.75;5.15;;;36.10;56.10;;;;;;5035686;28;20041;-76
2022/08/26 09:44:30;;;;;;;8.27;4.93;;;36.60;55.10;;;;;;5035223;28;20041;-76
2022/08/26 09:47:03;;;;;;;9.32;4.80;;;36.30;54.00;;;;;;5035641;28;20063;-76
2022/08/26 09:49:33;;;;;;;10.15;5.10;;;35.80;55.60;;;;;;5034401;28;20036;-74
2022/08/26 09:52:20;;;;;;;10.23;5.25;;;35.80;56.00;;;;;;5035355;28;20076;-74
2022/08/26 09:55:03;;;;;;;14.40;6.00;;;35.80;55.30;;;;;;5035018;28;20496;-73
2022/08/26 09:57:33;;;;;;;11.45;4.95;;;35.80;55.70;;;;;;5034766;28;20022;-74
2022/08/26 10:00:00;;;;;;;16.77;5.30;;;36.20;56.10;;;;;;5033501;28;20029;-75
2022/08/26 10:02:31;;;;;;;14.23;5.47;;;36.30;55.20;;;;;;5033620;28;20508;-74
2022/08/26 10:05:00;;;;;;;15.40;5.45;;;36.20;54.80;;;;;;5034545;28;20111;-74
2022/08/26 10:07:39;;;;;;;10.52;5.63;;;35.70;54.60;;;;;;5033902;28;20048;-73
2022/08/26 10:10:10;;;;;;;12.52;5.15;;;35.30;55.20;;;;;;5034831;28;20022;-74
2022/08/26 10:12:42;;;;;;;12.70;5.40;;;35.60;56.20;;;;;;5035069;28;20036;-74
2022/08/26 10:15:28;;;;;;;13.23;5.18;;;35.60;55.40;;;;;;5033532;28;20040;-74
2022/08/26 10:18:02;;;;;;;13.32;4.93;;;35.30;55.70;;;;;;5034815;28;20022;-73
2022/08/26 10:20:34;;;;;;;6.25;4.30;;;35.50;56.70;;;;;;5035232;28;20037;-74
2022/08/26 10:23:11;;;;;;;9.13;4.40;;;36.00;55.30;;;;;;5035793;28;20033;-78
2022/08/26 10:25:50;;;;;;;8.57;4.38;;;36.30;54.70;;;;;;5037319;28;20458;-73
2022/08/26 10:28:37;;;;;;;11.15;5.82;;;35.00;54.10;;;;;;5036585;28;20036;-75
2022/08/26 10:31:06;;;;;;;9.10;5.43;;;34.10;55.80;;;;;;5037681;28;20033;-74
2022/08/26 10:33:31;;;;;;;;;;;34.60;56.10;;;;;;5033843;28;20032;-73
2022/08/26 10:36:02;;;;;;;10.25;5.20;;;34.60;56.00;;;;;;5034029;28;20353;-73
2022/08/26 10:38:39;;;;;;;10.20;5.15;;;35.10;55.70;;;;;;5033318;28;20025;-73
2022/08/26 10:41:11;;;;;;;11.55;4.85;;;35.20;55.50;;;;;;5034453;28;20083;-73
2022/08/26 10:43:42;;;;;;;7.05;4.10;;;35.70;53.00;;;;;;5032771;28;20051;-73
2022/08/26 10:46:13;;;;;;;10.90;4.63;;;36.00;52.30;;;;;;5033091;28;20033;-75
2022/08/26 10:48:57;;;;;;;7.95;4.07;;;36.60;51.90;;;;;;5032699;28;20060;-73
2022/08/26 10:51:30;;;;;;;8.50;4.30;;;37.10;51.40;;;;;;5033189;28;20065;-76
2022/08/26 10:54:04;;;;;;;9.60;4.18;;;37.30;50.90;;;;;;5033068;28;20484;-76
2022/08/26 10:56:42;;;;;;;9.77;4.18;;;37.90;49.60;;;;;;5033009;28;20496;-75
2022/08/26 10:59:22;;;;;;;12.38;3.97;;;38.70;48.70;;;;;;5033884;28;20022;-75
2022/08/26 11:01:54;;;;;;;7.22;4.25;;;39.40;47.10;;;;;;5033642;28;20124;-75
2022/08/26 11:04:20;;;;;;;10.85;4.93;;;39.80;46.20;;;;;;5033618;28;20489;-75
2022/08/26 11:06:45;;;;;;;10.77;4.18;;;39.20;46.90;;;;;;5033786;28;20064;-76
2022/08/26 11:09:44;;;;;;;11.98;4.57;;;39.40;47.80;;;;;;5033598;28;20060;-75
2022/08/26 11:12:35;;;;;;;7.10;4.00;;;39.80;46.70;;;;;;5032497;28;20461;-75
2022/08/26 11:15:07;;;;;;;7.03;3.90;;;39.10;45.80;;;;;;5033848;28;20028;-75
2022/08/26 11:17:44;;;;;;;7.25;4.10;;;39.30;46.20;;;;;;5033868;28;20104;-75
2022/08/26 11:20:22;;;;;;;10.10;3.78;;;39.00;45.40;;;;;;5032516;28;20389;-73
2022/08/26 11:22:49;;;;;;;7.97;4.88;;;38.60;46.50;;;;;;5034055;28;20480;-75
2022/08/26 11:25:20;;;;;;;10.73;4.77;;;39.20;45.70;;;;;;5033465;28;20490;-75
2022/08/26 11:27:56;;;;;;;10.38;4.25;;;39.40;44.80;;;;;;5033608;28;20260;-75
2022/08/26 11:30:23;;;;;;;8.60;3.90;;;39.10;45.40;;;;;;5034157;28;20021;-75
2022/08/26 11:32:54;;;;;;;10.05;3.95;;;39.40;45.70;;;;;;5034149;28;20372;-74
2022/08/26 11:35:20;;;;;;;15.02;4.25;;;39.90;45.60;;;;;;5033821;28;20034;-74
2022/08/26 11:37:56;;;;;;;9.00;4.47;;;39.00;45.10;;;;;;5033591;28;20025;-70
2022/08/26 11:40:27;;;;;;;9.13;3.92;;;39.20;46.00;;;;;;5033201;28;20030;-70
2022/08/26 11:43:05;;;;;;;7.97;3.85;;;40.40;43.50;;;;;;5033744;28;20365;-69
2022/08/26 11:45:42;;;;;;;6.72;4.18;;;41.10;43.00;;;;;;5032262;28;20416;-70
2022/08/26 11:48:19;;;;;;;10.40;4.32;;;40.20;42.60;;;;;;5033569;28;20104;-70
2022/08/26 11:50:53;;;;;;;9.90;4.15;;;41.10;42.90;;;;;;5032403;28;20033;-70
2022/08/26 11:53:21;;;;;;;11.23;4.82;;;40.30;43.40;;;;;;5033774;28;20030;-70
2022/08/26 11:55:49;;;;;;;11.55;4.30;;;40.20;43.40;;;;;;5033480;28;20029;-71
2022/08/26 11:58:15;;;;;;;9.23;4.03;;;40.40;43.40;;;;;;5033729;28;20103;-71
2022/08/26 12:01:05;;;;;;;7.80;3.60;;;40.90;43.00;;;;;;5032108;28;20030;-71
2022/08/26 12:03:37;;;;;;;7.75;4.13;;;41.40;41.30;;;;;;5033411;28;20042;-70
2022/08/26 12:06:26;;;;;;;7.55;3.90;;;42.00;40.80;;;;;;5032007;28;20030;-70
2022/08/26 12:08:54;;;;;;;9.98;3.95;;;41.90;40.30;;;;;;5032272;28;20564;-70
2022/08/26 12:11:26;;;;;;;12.68;4.53;;;41.80;40.10;;;;;;5033282;28;20033;-70
2022/08/26 12:14:05;;;;;;;12.63;4.28;;;41.50;40.50;;;;;;5031973;28;20124;-71
2022/08/26 12:16:38;;;;;;;12.27;4.57;;;42.10;40.70;;;;;;5033439;28;20034;-71
2022/08/26 12:19:23;;;;;;;9.05;3.80;;;41.90;39.80;;;;;;5031870;28;20083;-71
2022/08/26 12:21:49;;;;;;;15.65;4.60;;;41.60;39.60;;;;;;5032774;28;20030;-70
2022/08/26 12:24:19;;;;;;;10.65;3.97;;;41.50;40.30;;;;;;5035938;28;20390;-71
2022/08/26 12:26:45;;;;;;;11.93;4.10;;;41.40;40.20;;;;;;5036906;28;20032;-70
2022/08/26 12:29:26;;;;;;;10.05;3.95;;;40.60;40.80;;;;;;5038555;28;20136;-71
2022/08/26 12:32:11;;;;;;;7.40;3.67;;;40.50;40.00;;;;;;5050702;28;20485;-71
2022/08/26 12:34:41;;;;;;;9.38;4.10;;;39.30;40.80;;;;;;5054274;28;20021;-74
2022/08/26 12:37:09;;;;;;;8.10;4.00;;;35.70;51.00;;;;;;5046795;28;20033;-75
2022/08/26 12:39:38;;;;;;;7.07;3.55;;;36.20;49.10;;;;;;5034890;28;20080;-75
2022/08/26 12:42:15;;;;;;;;;;;37.60;47.00;;;;;;5035608;28;20033;-76
2022/08/26 12:44:41;;;;;;;8.73;3.90;;;39.00;44.20;;;;;;5036651;28;19924;-74
2022/08/26 12:47:21;;;;;;;9.25;3.80;;;40.50;43.20;;;;;;5036295;28;20029;-74
2022/08/26 12:49:48;;;;;;;9.07;3.85;;;40.70;42.10;;;;;;5036365;28;20369;-75
2022/08/26 12:52:31;;;;;;;6.97;3.17;;;41.80;41.70;;;;;;5043339;28;20048;-74
2022/08/26 12:55:31;;;;;;;6.65;3.45;;;41.90;40.50;;;;;;5054602;28;20044;-74
2022/08/26 12:58:15;;;;;;;8.82;3.58;;;41.00;40.40;;;;;;5051991;28;20445;-74